createdAt,value
2023-10-14T00:00:15.328Z,23.48
2023-10-14T00:01:17.337Z,21.87
2023-10-14T00:02:19.360Z,19.37
2023-10-14T00:03:21.257Z,22.21
2023-10-14T00:04:23.327Z,21.49
2023-10-14T00:05:25.584Z,22.13
2023-10-14T00:06:28.144Z,21.67
2023-10-14T00:07:30.147Z,20.94
2023-10-14T00:08:38.282Z,24.11
2023-10-14T00:09:40.267Z,20.59
2023-10-14T00:10:44.422Z,22.51
2023-10-14T00:11:46.386Z,20.94
2023-10-14T00:12:48.869Z,22.10
2023-10-14T00:13:50.951Z,20.05
2023-10-14T00:14:52.964Z,22.02
2023-10-14T00:15:54.927Z,22.24
2023-10-14T00:16:57.195Z,21.55
2023-10-14T00:17:59.346Z,21.03
2023-10-14T00:19:03.715Z,20.63
2023-10-14T00:20:07.543Z,23.98
2023-10-14T00:21:12.267Z,23.11
2023-10-14T00:22:14.242Z,20.73
2023-10-14T00:23:16.368Z,26.51
2023-10-14T00:24:19.672Z,26.85
2023-10-14T00:25:23.206Z,26.27
2023-10-14T00:26:28.001Z,22.52
2023-10-14T00:27:29.996Z,22.59
2023-10-14T00:28:31.946Z,22.66
2023-10-14T00:29:36.907Z,26.59
2023-10-14T00:30:39.627Z,22.63
2023-10-14T00:31:43.074Z,24.36
2023-10-14T00:32:45.229Z,23.62
2023-10-14T00:33:47.389Z,22.67
2023-10-14T00:34:49.588Z,23.26
2023-10-14T00:35:52.416Z,22.40
2023-10-14T00:36:54.577Z,22.03
2023-10-14T00:37:56.713Z,23.85
2023-10-14T00:38:58.933Z,22.11
2023-10-14T00:40:00.843Z,23.93
2023-10-14T00:41:02.842Z,22.28
2023-10-14T00:42:05.743Z,24.75
2023-10-14T00:43:07.835Z,22.41
2023-10-14T00:44:13.247Z,23.23
2023-10-14T00:45:15.268Z,22.67
2023-10-14T00:46:18.305Z,20.87
2023-10-14T00:47:20.814Z,24.30
2023-10-14T00:48:22.899Z,23.03
2023-10-14T00:49:26.311Z,21.94
2023-10-14T00:50:28.654Z,22.58
2023-10-14T00:51:32.236Z,23.03
2023-10-14T00:52:34.244Z,26.17
2023-10-14T00:53:41.198Z,21.95
2023-10-14T00:54:45.381Z,21.58
2023-10-14T00:55:48.820Z,21.60
2023-10-14T00:56:51.290Z,22.86
2023-10-14T00:57:53.731Z,20.97
2023-10-14T00:59:00.489Z,20.73
2023-10-14T01:00:03.208Z,21.84
2023-10-14T01:01:05.267Z,22.65
2023-10-14T01:02:10.904Z,22.92
2023-10-14T01:04:25.441Z,22.51
2023-10-14T01:05:27.705Z,20.78
2023-10-14T01:06:30.113Z,23.95
2023-10-14T01:07:32.042Z,23.71
2023-10-14T01:08:34.384Z,23.18
2023-10-14T01:09:36.292Z,22.77
2023-10-14T01:10:38.739Z,24.80
2023-10-14T01:11:40.665Z,23.69
2023-10-14T01:12:42.756Z,23.17
2023-10-14T01:13:45.201Z,23.49
2023-10-14T01:14:48.843Z,20.65
2023-10-14T01:15:52.163Z,23.12
2023-10-14T01:16:54.526Z,23.85
2023-10-14T01:17:56.844Z,22.73
2023-10-14T01:18:58.942Z,21.27
2023-10-14T01:20:02.974Z,22.99
2023-10-14T01:21:06.317Z,25.45
2023-10-14T01:22:11.725Z,22.64
2023-10-14T01:23:13.973Z,23.57
2023-10-14T01:24:18.013Z,23.06
2023-10-14T01:25:20.106Z,21.12
2023-10-14T01:26:22.193Z,24.53
2023-10-14T01:27:24.516Z,23.34
2023-10-14T01:28:26.594Z,22.75
2023-10-14T01:29:28.483Z,23.74
2023-10-14T01:30:30.550Z,25.21
2023-10-14T01:32:01.563Z,24.68
2023-10-14T01:33:04.829Z,24.86
2023-10-14T01:34:07.493Z,20.49
2023-10-14T01:35:09.940Z,18.64
2023-10-14T01:36:12.183Z,22.76
2023-10-14T01:37:14.348Z,21.90
2023-10-14T01:38:16.425Z,20.85
2023-10-14T01:39:18.594Z,22.19
2023-10-14T01:40:25.024Z,21.01
2023-10-14T01:41:27.314Z,20.80
2023-10-14T01:42:29.422Z,20.43
2023-10-14T01:43:31.442Z,21.13
2023-10-14T01:44:33.334Z,18.49
2023-10-14T01:45:37.491Z,21.39
2023-10-14T01:46:39.871Z,26.05
2023-10-14T01:47:41.925Z,22.76
2023-10-14T01:48:45.357Z,21.84
2023-10-14T01:49:47.532Z,22.00
2023-10-14T01:50:51.532Z,22.86
2023-10-14T01:51:53.487Z,21.04
2023-10-14T01:52:55.567Z,22.80
2023-10-14T01:53:57.649Z,22.07
2023-10-14T01:54:59.808Z,22.96
2023-10-14T01:56:03.282Z,23.53
2023-10-14T01:57:05.591Z,23.60
2023-10-14T01:58:08.748Z,21.87
2023-10-14T01:59:10.902Z,23.22
2023-10-14T02:00:13.983Z,23.97
2023-10-14T02:01:16.599Z,21.93
2023-10-14T02:02:18.930Z,21.15
2023-10-14T02:03:22.092Z,22.04
2023-10-14T02:04:24.749Z,22.99
2023-10-14T02:05:27.481Z,24.11
2023-10-14T02:06:30.415Z,23.33
2023-10-14T02:07:32.569Z,22.65
2023-10-14T02:08:34.649Z,23.85
2023-10-14T02:09:36.585Z,23.26
2023-10-14T02:10:38.717Z,23.58
2023-10-14T02:11:40.757Z,23.54
2023-10-14T02:12:42.802Z,21.57
2023-10-14T02:13:44.941Z,24.46
2023-10-14T02:14:46.898Z,22.59
2023-10-14T02:15:50.195Z,21.23
2023-10-14T02:16:52.520Z,24.24
2023-10-14T02:17:54.668Z,23.49
2023-10-14T02:18:57.291Z,21.71
2023-10-14T02:19:59.533Z,22.57
2023-10-14T02:21:01.568Z,23.63
2023-10-14T02:22:05.069Z,21.69
2023-10-14T02:23:07.262Z,22.43
2023-10-14T02:24:09.931Z,24.83
2023-10-14T02:25:12.036Z,25.32
2023-10-14T02:26:20.479Z,23.97
2023-10-14T02:27:22.654Z,26.62
2023-10-14T02:28:26.221Z,24.96
2023-10-14T02:29:28.296Z,25.40
2023-10-14T02:30:30.631Z,26.86
2023-10-14T02:31:33.787Z,22.91
2023-10-14T02:32:35.861Z,25.82
2023-10-14T02:33:37.908Z,24.92
2023-10-14T02:34:41.352Z,22.95
2023-10-14T02:35:43.605Z,22.71
2023-10-14T02:36:45.839Z,23.42
2023-10-14T02:37:47.994Z,25.63
2023-10-14T02:38:50.032Z,21.42
2023-10-14T02:39:52.141Z,24.81
2023-10-14T02:40:54.842Z,24.28
2023-10-14T02:41:56.857Z,22.59
2023-10-14T02:42:59.199Z,22.05
2023-10-14T02:44:01.273Z,24.42
2023-10-14T02:45:03.545Z,23.81
2023-10-14T02:46:05.825Z,26.29
2023-10-14T02:47:08.270Z,25.17
2023-10-14T02:48:10.337Z,21.61
2023-10-14T02:49:14.638Z,24.21
2023-10-14T02:50:17.435Z,24.97
2023-10-14T02:51:24.120Z,23.22
2023-10-14T02:52:26.191Z,23.48
2023-10-14T02:53:28.136Z,21.56
2023-10-14T02:54:30.877Z,23.73
2023-10-14T02:55:34.925Z,20.45
2023-10-14T02:56:38.287Z,22.68
2023-10-14T02:57:40.337Z,21.72
2023-10-14T02:58:42.543Z,22.10
2023-10-14T02:59:45.178Z,22.03
2023-10-14T03:00:48.485Z,21.90
2023-10-14T03:01:50.730Z,22.32
2023-10-14T03:02:52.800Z,17.44
2023-10-14T03:03:55.288Z,21.55
2023-10-14T03:04:58.694Z,22.19
2023-10-14T03:06:01.520Z,20.38
2023-10-14T03:07:03.560Z,22.90
2023-10-14T03:08:05.910Z,18.25
2023-10-14T03:09:07.838Z,19.19
2023-10-14T03:10:12.217Z,18.63
2023-10-14T03:11:14.391Z,19.11
2023-10-14T03:12:16.782Z,15.69
2023-10-14T03:13:19.993Z,19.16
2023-10-14T03:14:22.104Z,17.75
2023-10-14T03:15:24.426Z,16.89
2023-10-14T03:16:26.500Z,16.41
2023-10-14T03:17:28.640Z,16.77
2023-10-14T03:18:30.605Z,17.80
2023-10-14T03:19:32.552Z,18.07
2023-10-14T03:20:37.069Z,18.33
2023-10-14T03:21:39.010Z,15.89
2023-10-14T03:22:40.995Z,17.04
2023-10-14T03:23:42.941Z,14.77
2023-10-14T03:24:45.601Z,15.99
2023-10-14T03:25:51.020Z,15.59
2023-10-14T03:26:53.381Z,16.24
2023-10-14T03:27:57.565Z,15.28
2023-10-14T03:29:00.264Z,15.98
2023-10-14T03:30:02.411Z,17.01
2023-10-14T03:31:05.579Z,16.71
2023-10-14T03:32:08.328Z,15.40
2023-10-14T03:33:15.224Z,13.62
2023-10-14T03:34:17.225Z,14.36
2023-10-14T03:35:19.184Z,15.17
2023-10-14T03:36:21.300Z,15.44
2023-10-14T03:37:23.193Z,14.55
2023-10-14T03:38:25.584Z,15.18
2023-10-14T03:39:28.040Z,15.17
2023-10-14T03:40:30.176Z,14.69
2023-10-14T03:41:32.119Z,15.83
2023-10-14T03:42:34.328Z,11.55
2023-10-14T03:43:38.530Z,15.41
2023-10-14T03:44:40.472Z,15.71
2023-10-14T03:45:43.106Z,14.20
2023-10-14T03:46:45.390Z,16.41
2023-10-14T03:47:47.996Z,15.02
2023-10-14T03:48:50.755Z,15.40
2023-10-14T03:49:52.775Z,16.13
2023-10-14T03:50:54.785Z,14.01
2023-10-14T03:51:56.720Z,12.59
2023-10-14T03:52:58.720Z,16.80
2023-10-14T03:54:01.756Z,15.15
2023-10-14T03:55:04.845Z,12.89
2023-10-14T03:56:07.472Z,13.41
2023-10-14T03:57:10.196Z,12.53
2023-10-14T03:58:12.666Z,16.79
2023-10-14T03:59:19.404Z,12.03
2023-10-14T04:00:26.971Z,13.19
2023-10-14T04:01:31.065Z,13.17
2023-10-14T04:02:33.223Z,11.61
2023-10-14T04:03:35.201Z,11.15
2023-10-14T04:04:37.280Z,13.53
2023-10-14T04:05:43.458Z,12.65
2023-10-14T04:06:49.451Z,13.93
2023-10-14T04:07:51.468Z,13.40
2023-10-14T04:08:53.595Z,13.53
2023-10-14T04:09:55.519Z,12.73
2023-10-14T04:10:58.104Z,12.99
2023-10-14T04:12:01.500Z,12.62
2023-10-14T04:13:05.096Z,13.33
2023-10-14T04:14:07.075Z,13.18
2023-10-14T04:15:10.460Z,14.13
2023-10-14T04:16:12.742Z,12.03
2023-10-14T04:17:14.736Z,12.67
2023-10-14T04:18:16.777Z,11.59
2023-10-14T04:19:18.769Z,13.50
2023-10-14T04:20:22.617Z,11.13
2023-10-14T04:21:24.609Z,14.74
2023-10-14T04:22:26.844Z,13.14
2023-10-14T04:23:29.640Z,11.66
2023-10-14T04:24:32.848Z,12.00
2023-10-14T04:25:34.752Z,14.19
2023-10-14T04:26:37.341Z,14.43
2023-10-14T04:27:41.280Z,12.95
2023-10-14T04:28:43.468Z,9.49
2023-10-14T04:29:45.516Z,13.05
2023-10-14T04:30:47.668Z,12.57
2023-10-14T04:31:49.988Z,13.21
2023-10-14T04:32:53.305Z,11.90
2023-10-14T04:33:55.643Z,12.07
2023-10-14T04:34:57.855Z,11.90
2023-10-14T04:36:00.029Z,10.19
2023-10-14T04:37:03.146Z,13.83
2023-10-14T04:38:05.344Z,10.21
2023-10-14T04:39:07.532Z,10.08
2023-10-14T04:40:10.950Z,10.81
2023-10-14T04:41:13.154Z,9.88
2023-10-14T04:42:16.016Z,9.61
2023-10-14T04:43:18.170Z,10.35
2023-10-14T04:44:20.357Z,8.55
2023-10-14T04:45:22.281Z,10.69
2023-10-14T04:46:24.758Z,10.71
2023-10-14T04:47:26.921Z,10.11
2023-10-14T04:48:38.706Z,10.84
2023-10-14T04:49:41.095Z,11.62
2023-10-14T04:50:44.052Z,10.27
2023-10-14T04:51:46.107Z,9.37
2023-10-14T04:52:48.252Z,13.38
2023-10-14T04:53:50.195Z,10.45
2023-10-14T04:54:52.750Z,9.21
2023-10-14T04:55:55.579Z,11.09
2023-10-14T04:56:58.023Z,9.69
2023-10-14T04:58:00.426Z,8.51
2023-10-14T04:59:02.780Z,10.22
2023-10-14T05:00:06.601Z,9.66
2023-10-14T05:01:10.188Z,10.01
2023-10-14T05:02:13.479Z,9.91
2023-10-14T05:03:17.404Z,8.71
2023-10-14T05:04:19.482Z,9.96
2023-10-14T05:05:21.610Z,10.75
2023-10-14T05:06:25.296Z,11.65
2023-10-14T05:07:27.758Z,11.33
2023-10-14T05:08:30.375Z,10.71
2023-10-14T05:09:32.550Z,10.67
2023-10-14T05:10:34.684Z,10.37
2023-10-14T05:11:36.694Z,9.82
2023-10-14T05:12:38.651Z,14.84
2023-10-14T05:13:41.702Z,12.13
2023-10-14T05:14:44.033Z,11.49
2023-10-14T05:15:47.071Z,10.12
2023-10-14T05:16:50.499Z,9.76
2023-10-14T05:17:54.166Z,10.53
2023-10-14T05:18:56.340Z,10.92
2023-10-14T05:19:58.417Z,9.81
2023-10-14T05:21:00.697Z,10.57
2023-10-14T05:22:03.893Z,9.48
2023-10-14T05:23:05.890Z,8.23
2023-10-14T05:24:09.598Z,9.19
2023-10-14T05:25:11.646Z,10.25
2023-10-14T05:26:13.974Z,8.65
2023-10-14T05:27:16.968Z,10.13
2023-10-14T05:28:18.930Z,9.23
2023-10-14T05:29:21.276Z,9.93
2023-10-14T05:30:26.140Z,9.86
2023-10-14T05:31:28.223Z,8.25
2023-10-14T05:32:30.494Z,8.03
2023-10-14T05:33:32.659Z,11.19
2023-10-14T05:34:34.711Z,10.03
2023-10-14T05:36:49.052Z,8.51
2023-10-14T05:37:51.101Z,8.37
2023-10-14T05:38:53.418Z,8.72
2023-10-14T05:39:56.893Z,8.67
2023-10-14T05:40:59.854Z,9.45
2023-10-14T05:42:02.071Z,9.11
2023-10-14T05:43:04.665Z,8.07
2023-10-14T05:44:06.840Z,9.64
2023-10-14T05:45:10.196Z,8.45
2023-10-14T05:46:12.354Z,9.61
2023-10-14T05:47:17.136Z,10.16
2023-10-14T05:48:21.289Z,9.26
2023-10-14T05:49:23.833Z,11.41
2023-10-14T05:50:26.391Z,9.96
2023-10-14T05:51:28.346Z,9.31
2023-10-14T05:52:30.513Z,10.97
2023-10-14T05:53:32.521Z,9.26
2023-10-14T05:54:35.495Z,10.74
2023-10-14T05:55:37.884Z,10.03
2023-10-14T05:56:40.087Z,10.71
2023-10-14T05:57:42.052Z,9.09
2023-10-14T05:58:45.150Z,10.55
2023-10-14T05:59:49.180Z,11.79
2023-10-14T06:00:51.276Z,9.47
2023-10-14T06:01:53.396Z,9.89
2023-10-14T06:02:59.602Z,11.25
2023-10-14T06:04:01.684Z,8.59
2023-10-14T06:05:04.816Z,12.12
2023-10-14T06:06:07.580Z,9.39
2023-10-14T06:07:10.838Z,11.93
2023-10-14T06:08:12.832Z,10.19
2023-10-14T06:09:15.113Z,11.99
2023-10-14T06:10:18.395Z,10.38
2023-10-14T06:11:20.382Z,8.72
2023-10-14T06:12:22.372Z,9.41
2023-10-14T06:13:28.874Z,9.91
2023-10-14T06:14:31.022Z,9.64
2023-10-14T06:15:41.560Z,10.81
2023-10-14T06:16:44.374Z,8.82
2023-10-14T06:17:48.696Z,11.12
2023-10-14T06:18:50.845Z,9.76
2023-10-14T06:19:52.988Z,9.95
2023-10-14T06:20:55.094Z,9.97
2023-10-14T06:21:57.662Z,11.17
2023-10-14T06:22:59.650Z,9.72
2023-10-14T06:24:01.583Z,11.12
2023-10-14T06:25:05.674Z,8.83
2023-10-14T06:26:09.360Z,8.58
2023-10-14T06:27:11.999Z,9.44
2023-10-14T06:28:15.378Z,9.78
2023-10-14T06:29:17.798Z,10.52
2023-10-14T06:30:20.518Z,9.01
2023-10-14T06:31:24.036Z,9.73
2023-10-14T06:32:26.273Z,8.89
2023-10-14T06:33:28.595Z,11.29
2023-10-14T06:34:32.058Z,8.94
2023-10-14T06:35:35.366Z,9.63
2023-10-14T06:36:38.362Z,12.18
2023-10-14T06:37:40.300Z,11.37
2023-10-14T06:38:44.419Z,10.32
2023-10-14T06:39:52.714Z,10.22
2023-10-14T06:40:57.856Z,8.77
2023-10-14T06:42:00.177Z,10.67
2023-10-14T06:43:04.853Z,10.57
2023-10-14T06:44:06.980Z,10.46
2023-10-14T06:45:08.919Z,11.96
2023-10-14T06:46:11.022Z,12.83
2023-10-14T06:47:14.448Z,10.69
2023-10-14T06:48:16.893Z,12.14
2023-10-14T06:49:18.986Z,13.85
2023-10-14T06:50:23.573Z,12.39
2023-10-14T06:51:26.075Z,16.39
2023-10-14T06:52:29.079Z,14.41
2023-10-14T06:53:31.178Z,14.13
2023-10-14T06:54:34.541Z,14.39
2023-10-14T06:55:37.606Z,19.69
2023-10-14T06:56:39.763Z,16.44
2023-10-14T06:57:41.871Z,13.38
2023-10-14T06:58:44.260Z,17.58
2023-10-14T06:59:46.329Z,14.83
2023-10-14T07:00:49.507Z,12.32
2023-10-14T07:01:52.402Z,14.29
2023-10-14T07:02:55.624Z,12.09
2023-10-14T07:03:58.431Z,14.43
2023-10-14T07:05:00.544Z,14.91
2023-10-14T07:06:02.756Z,16.85
2023-10-14T07:07:05.231Z,16.37
2023-10-14T07:08:07.232Z,16.79
2023-10-14T07:09:11.309Z,18.79
2023-10-14T07:10:14.548Z,18.80
2023-10-14T07:11:16.701Z,15.76
2023-10-14T07:12:18.850Z,18.72
2023-10-14T07:13:22.328Z,20.10
2023-10-14T07:14:24.689Z,18.89
2023-10-14T07:16:39.112Z,18.94
2023-10-14T07:17:42.832Z,15.69
2023-10-14T07:18:44.943Z,17.99
2023-10-14T07:19:47.486Z,16.06
2023-10-14T07:21:00.181Z,19.98
2023-10-14T07:22:02.295Z,16.17
2023-10-14T07:23:04.435Z,14.94
2023-10-14T07:24:07.909Z,16.65
2023-10-14T07:25:10.673Z,15.91
2023-10-14T07:26:14.301Z,15.15
2023-10-14T07:27:16.337Z,13.18
2023-10-14T07:28:18.579Z,14.10
2023-10-14T07:29:21.601Z,13.02
2023-10-14T07:30:24.008Z,13.77
2023-10-14T07:31:26.129Z,15.50
2023-10-14T07:32:28.313Z,11.50
2023-10-14T07:33:30.397Z,13.36
2023-10-14T07:34:33.606Z,11.27
2023-10-14T07:35:36.089Z,10.97
2023-10-14T07:36:38.303Z,11.81
2023-10-14T07:37:47.787Z,9.27
2023-10-14T07:38:49.870Z,10.72
2023-10-14T07:39:51.835Z,12.55
2023-10-14T07:40:57.103Z,10.56
2023-10-14T07:41:59.155Z,11.74
2023-10-14T07:43:05.771Z,10.71
2023-10-14T07:44:07.416Z,11.17
2023-10-14T07:45:10.344Z,10.37
2023-10-14T07:46:12.824Z,9.03
2023-10-14T07:47:14.973Z,9.81
2023-10-14T07:48:16.927Z,11.87
2023-10-14T07:49:20.155Z,10.97
2023-10-14T07:50:23.201Z,10.15
2023-10-14T07:51:30.258Z,10.36
2023-10-14T07:52:28.975Z,10.72
2023-10-14T07:53:30.956Z,12.40
2023-10-14T07:54:33.076Z,11.35
2023-10-14T07:55:40.329Z,9.25
2023-10-14T07:56:42.486Z,10.86
2023-10-14T07:57:44.405Z,8.97
2023-10-14T07:58:46.356Z,12.49
2023-10-14T07:59:48.582Z,8.65
2023-10-14T08:00:53.242Z,10.61
2023-10-14T08:01:55.329Z,9.61
2023-10-14T08:02:57.477Z,12.23
2023-10-14T08:03:59.678Z,11.72
2023-10-14T08:05:02.277Z,10.62
2023-10-14T08:06:08.217Z,11.25
2023-10-14T08:07:10.332Z,9.56
2023-10-14T08:08:12.709Z,10.86
2023-10-14T08:09:14.833Z,9.75
2023-10-14T08:10:18.738Z,8.85
2023-10-14T08:11:22.386Z,9.80
2023-10-14T08:12:24.645Z,8.79
2023-10-14T08:13:28.362Z,7.79
2023-10-14T08:14:30.356Z,8.13
2023-10-14T08:15:33.070Z,10.24
2023-10-14T08:16:35.385Z,11.92
2023-10-14T08:17:37.551Z,9.28
2023-10-14T08:18:40.181Z,6.78
2023-10-14T08:19:42.272Z,8.32
2023-10-14T08:20:44.603Z,8.73
2023-10-14T08:21:46.540Z,6.91
2023-10-14T08:22:48.738Z,9.20
2023-10-14T08:23:50.814Z,9.07
2023-10-14T08:24:52.755Z,7.23
2023-10-14T08:25:55.667Z,10.95
2023-10-14T08:26:58.270Z,9.43
2023-10-14T08:28:01.228Z,9.91
2023-10-14T08:29:06.305Z,9.48
2023-10-14T08:30:11.056Z,9.03
2023-10-14T08:31:18.057Z,10.66
2023-10-14T08:32:20.244Z,11.89
2023-10-14T08:33:24.344Z,9.29
2023-10-14T08:34:26.441Z,8.35
2023-10-14T08:35:28.919Z,9.43
2023-10-14T08:36:31.089Z,10.50
2023-10-14T08:37:33.146Z,9.67
2023-10-14T08:38:35.224Z,10.22
2023-10-14T08:39:37.365Z,12.85
2023-10-14T08:40:41.294Z,12.63
2023-10-14T08:41:47.170Z,10.18
2023-10-14T08:42:52.634Z,8.85
2023-10-14T08:43:58.524Z,8.77
2023-10-14T08:45:02.234Z,9.60
2023-10-14T08:46:05.598Z,13.66
2023-10-14T08:47:11.202Z,11.27
2023-10-14T08:48:13.012Z,9.00
2023-10-14T08:49:17.366Z,10.81
2023-10-14T08:50:23.167Z,10.06
2023-10-14T08:51:39.228Z,8.92
2023-10-14T08:52:31.583Z,10.03
2023-10-14T08:53:33.821Z,10.37
2023-10-14T08:54:37.818Z,8.37
2023-10-14T08:55:42.126Z,12.08
2023-10-14T08:56:47.818Z,11.30
2023-10-14T08:57:51.689Z,9.69
2023-10-14T08:58:53.907Z,15.32
2023-10-14T08:59:56.000Z,10.58
2023-10-14T09:00:58.934Z,9.13
2023-10-14T09:02:03.044Z,11.95
2023-10-14T09:03:09.116Z,10.62
2023-10-14T09:04:11.765Z,9.67
2023-10-14T09:05:14.128Z,13.75
2023-10-14T09:06:17.923Z,9.95
2023-10-14T09:07:21.963Z,9.54
2023-10-14T09:08:24.189Z,12.34
2023-10-14T09:09:26.483Z,12.85
2023-10-14T09:10:29.460Z,11.12
2023-10-14T09:11:32.110Z,10.69
2023-10-14T09:12:34.148Z,9.90
2023-10-14T09:13:36.692Z,13.44
2023-10-14T09:14:39.585Z,12.61
2023-10-14T09:15:43.153Z,11.61
2023-10-14T09:16:49.999Z,14.24
2023-10-14T09:17:52.489Z,21.14
2023-10-14T09:18:59.207Z,9.39
2023-10-14T09:20:01.350Z,9.69
2023-10-14T09:21:04.963Z,10.56
2023-10-14T09:22:07.629Z,10.89
2023-10-14T09:23:28.470Z,9.13
2023-10-14T09:24:32.022Z,9.70
2023-10-14T09:25:36.191Z,13.22
2023-10-14T09:26:41.639Z,10.92
2023-10-14T09:27:47.905Z,11.41
2023-10-14T09:28:51.845Z,13.79
2023-10-14T09:29:53.978Z,10.96
2023-10-14T09:30:59.176Z,8.81
2023-10-14T09:32:01.465Z,11.53
2023-10-14T09:33:05.261Z,10.09
2023-10-14T09:34:07.277Z,9.66
2023-10-14T09:35:09.278Z,13.60
2023-10-14T09:36:16.531Z,10.35
2023-10-14T09:37:19.299Z,9.28
2023-10-14T09:38:23.871Z,10.54
2023-10-14T09:39:26.080Z,10.18
2023-10-14T09:40:28.317Z,10.45
2023-10-14T09:41:30.642Z,10.02
2023-10-14T09:42:33.524Z,9.87
2023-10-14T09:43:38.803Z,12.01
2023-10-14T09:44:43.010Z,10.67
2023-10-14T09:45:50.377Z,12.34
2023-10-14T09:46:52.804Z,11.67
2023-10-14T09:47:56.592Z,8.06
2023-10-14T09:48:59.846Z,11.57
2023-10-14T09:50:02.848Z,9.81
2023-10-14T09:51:07.068Z,12.56
2023-10-14T09:52:11.705Z,11.01
2023-10-14T09:53:15.515Z,11.52
2023-10-14T09:54:18.362Z,10.19
2023-10-14T09:55:24.195Z,11.02
2023-10-14T09:56:40.930Z,11.09
2023-10-14T09:57:34.244Z,8.33
2023-10-14T09:59:50.838Z,9.62
2023-10-14T10:00:53.684Z,8.46
2023-10-14T10:01:55.754Z,10.31
2023-10-14T10:02:58.882Z,8.84
2023-10-14T10:04:04.658Z,6.66
2023-10-14T10:05:08.664Z,11.22
2023-10-14T10:06:17.580Z,10.56
2023-10-14T10:07:52.326Z,8.07
2023-10-14T10:09:03.763Z,8.42
2023-10-14T10:10:20.021Z,10.77
2023-10-14T10:11:23.824Z,8.46
2023-10-14T10:12:29.648Z,8.99
2023-10-14T10:13:32.238Z,8.54
2023-10-14T10:14:40.554Z,11.02
2023-10-14T10:15:42.864Z,9.08
2023-10-14T10:16:54.242Z,10.21
2023-10-14T10:17:59.499Z,9.80
2023-10-14T10:19:01.665Z,8.14
2023-10-14T10:20:08.968Z,7.40
2023-10-14T10:21:11.951Z,9.66
2023-10-14T10:22:18.168Z,9.84
2023-10-14T10:23:22.745Z,7.77
2023-10-14T10:24:33.552Z,6.74
2023-10-14T10:25:42.053Z,10.15
2023-10-14T10:26:58.768Z,9.38
2023-10-14T10:28:21.236Z,11.01
2023-10-14T10:29:26.037Z,9.00
2023-10-14T10:30:28.557Z,8.88
2023-10-14T10:31:31.514Z,7.02
2023-10-14T10:32:35.036Z,10.05
2023-10-14T10:33:55.252Z,9.35
2023-10-14T10:35:14.048Z,10.32
2023-10-14T10:37:52.507Z,8.08
2023-10-14T10:38:56.447Z,9.36
2023-10-14T10:39:59.161Z,8.59
2023-10-14T10:41:19.482Z,7.81
2023-10-14T10:42:21.682Z,10.38
2023-10-14T10:43:23.930Z,8.13
2023-10-14T10:44:26.422Z,13.39
2023-10-14T10:45:32.559Z,8.47
2023-10-14T10:46:38.733Z,9.54
2023-10-14T10:47:51.430Z,10.64
2023-10-14T10:48:54.260Z,11.47
2023-10-14T10:49:59.198Z,10.49
2023-10-14T10:51:02.342Z,11.35
2023-10-14T10:52:11.671Z,10.59
2023-10-14T10:53:16.388Z,9.70
2023-10-14T10:54:18.556Z,9.45
2023-10-14T10:55:22.842Z,9.27
2023-10-14T10:56:27.625Z,9.03
2023-10-14T10:57:30.504Z,9.51
2023-10-14T10:58:33.000Z,8.99
2023-10-14T10:59:36.380Z,8.44
2023-10-14T11:00:41.007Z,9.39
2023-10-14T11:01:43.462Z,10.35
2023-10-14T11:02:45.621Z,10.91
2023-10-14T11:03:47.837Z,8.73
2023-10-14T11:04:50.604Z,8.29
2023-10-14T11:05:52.910Z,8.73
2023-10-14T11:06:55.147Z,10.76
2023-10-14T11:07:58.082Z,8.34
2023-10-14T11:09:01.788Z,11.78
2023-10-14T11:10:04.956Z,10.05
2023-10-14T11:12:18.583Z,12.13
2023-10-14T11:13:20.569Z,10.45
2023-10-14T11:14:25.624Z,8.80
2023-10-14T11:15:29.884Z,8.95
2023-10-14T11:16:32.065Z,9.17
2023-10-14T11:17:37.256Z,10.16
2023-10-14T11:20:01.549Z,12.60
2023-10-14T11:21:04.417Z,14.22
2023-10-14T11:23:31.913Z,12.05
2023-10-14T11:25:51.844Z,11.56
2023-10-14T11:26:56.372Z,10.19
2023-10-14T11:28:02.090Z,7.62
2023-10-14T11:29:06.128Z,13.08
2023-10-14T11:30:13.809Z,8.21
2023-10-14T11:31:20.728Z,7.69
2023-10-14T11:32:23.434Z,9.89
2023-10-14T11:33:26.424Z,10.18
2023-10-14T11:34:35.594Z,8.96
2023-10-14T11:35:37.931Z,8.31
2023-10-14T11:36:47.525Z,9.21
2023-10-14T11:37:58.343Z,11.94
2023-10-14T11:38:57.640Z,12.05
2023-10-14T11:41:16.926Z,8.29
2023-10-14T11:42:21.479Z,7.03
2023-10-14T11:43:25.298Z,7.76
2023-10-14T11:44:29.394Z,10.28
2023-10-14T11:45:36.555Z,8.64
2023-10-14T11:46:40.637Z,9.13
2023-10-14T11:47:42.785Z,8.71
2023-10-14T11:48:47.123Z,11.01
2023-10-14T11:49:49.241Z,10.88
2023-10-14T11:51:06.805Z,11.14
2023-10-14T11:52:12.036Z,18.26
2023-10-14T11:53:20.448Z,10.24
2023-10-14T11:54:24.318Z,10.74
2023-10-14T11:55:28.351Z,8.84
2023-10-14T11:56:34.133Z,7.76
2023-10-14T11:57:40.027Z,9.78
2023-10-14T11:58:42.118Z,10.64
2023-10-14T11:59:47.718Z,10.07
2023-10-14T12:00:53.019Z,9.28
2023-10-14T12:01:57.369Z,9.81
2023-10-14T12:03:01.545Z,11.22
2023-10-14T12:04:04.954Z,10.83
2023-10-14T12:05:10.825Z,9.42
2023-10-14T12:06:14.706Z,13.59
2023-10-14T12:07:22.684Z,8.73
2023-10-14T12:08:33.531Z,8.57
2023-10-14T12:09:35.619Z,10.31
2023-10-14T12:10:37.769Z,9.43
2023-10-14T12:11:45.850Z,8.66
2023-10-14T12:12:47.946Z,12.64
2023-10-14T12:13:51.642Z,9.11
2023-10-14T12:14:53.758Z,8.89
2023-10-14T12:15:58.948Z,10.52
2023-10-14T12:17:12.760Z,7.57
2023-10-14T12:18:18.373Z,9.66
2023-10-14T12:19:23.470Z,7.79
2023-10-14T12:20:28.213Z,8.48
2023-10-14T12:21:30.263Z,11.53
2023-10-14T12:22:34.156Z,7.51
2023-10-14T12:23:38.028Z,10.62
2023-10-14T12:24:40.638Z,8.25
2023-10-14T12:25:42.539Z,10.23
2023-10-14T12:26:44.657Z,7.39
2023-10-14T12:27:47.414Z,12.28
2023-10-14T12:28:51.440Z,8.81
2023-10-14T12:29:56.406Z,10.39
2023-10-14T12:31:02.683Z,8.83
2023-10-14T12:32:17.962Z,9.83
2023-10-14T12:33:11.338Z,10.21
2023-10-14T12:34:20.464Z,10.33
2023-10-14T12:35:22.571Z,8.23
2023-10-14T12:36:30.265Z,9.07
2023-10-14T12:37:30.002Z,7.57
2023-10-14T12:38:32.468Z,10.98
2023-10-14T12:39:36.706Z,9.25
2023-10-14T12:40:39.106Z,9.72
2023-10-14T12:41:41.110Z,8.79
2023-10-14T12:42:43.030Z,12.47
2023-10-14T12:43:45.239Z,8.85
2023-10-14T12:44:47.521Z,9.27
2023-10-14T12:45:49.708Z,7.97
2023-10-14T12:46:51.977Z,7.47
2023-10-14T12:47:54.506Z,8.85
2023-10-14T12:48:56.567Z,7.62
2023-10-14T12:50:01.189Z,9.39
2023-10-14T12:51:02.904Z,9.72
2023-10-14T12:52:07.442Z,8.53
2023-10-14T12:53:09.784Z,8.31
2023-10-14T12:54:15.930Z,8.96
2023-10-14T12:55:18.407Z,8.66
2023-10-14T12:56:20.936Z,7.97
2023-10-14T12:57:23.049Z,8.25
2023-10-14T12:58:25.869Z,9.03
2023-10-14T12:59:27.995Z,9.81
2023-10-14T13:00:31.072Z,9.06
2023-10-14T13:01:35.027Z,6.64
2023-10-14T13:02:38.211Z,7.92
2023-10-14T13:03:40.446Z,8.24
2023-10-14T13:04:42.655Z,9.39
2023-10-14T13:05:45.022Z,8.93
2023-10-14T13:06:47.607Z,11.01
2023-10-14T13:07:50.318Z,8.75
2023-10-14T13:08:57.082Z,6.19
2023-10-14T13:09:59.706Z,10.40
2023-10-14T13:11:02.349Z,6.59
2023-10-14T13:12:06.037Z,9.37
2023-10-14T13:13:08.042Z,10.70
2023-10-14T13:14:11.927Z,11.29
2023-10-14T13:15:17.336Z,7.40
2023-10-14T13:16:21.293Z,9.86
2023-10-14T13:17:25.083Z,8.04
2023-10-14T13:18:27.602Z,8.81
2023-10-14T13:19:32.449Z,9.32
2023-10-14T13:20:36.117Z,9.89
2023-10-14T13:21:38.202Z,9.93
2023-10-14T13:22:40.189Z,8.47
2023-10-14T13:23:44.828Z,9.40
2023-10-14T13:24:46.778Z,10.86
2023-10-14T13:25:48.763Z,9.72
2023-10-14T13:26:50.784Z,11.99
2023-10-14T13:27:53.693Z,11.21
2023-10-14T13:28:55.727Z,8.64
2023-10-14T13:29:57.652Z,9.96
2023-10-14T13:30:59.939Z,10.22
2023-10-14T13:32:02.262Z,9.59
2023-10-14T13:33:05.177Z,8.65
2023-10-14T13:34:07.200Z,6.96
2023-10-14T13:35:09.413Z,12.09
2023-10-14T13:36:12.070Z,12.24
2023-10-14T13:37:14.817Z,10.92
2023-10-14T13:38:16.840Z,10.70
2023-10-14T13:39:18.768Z,11.67
2023-10-14T13:40:37.547Z,8.33
2023-10-14T13:41:26.020Z,8.64
2023-10-14T13:42:27.966Z,9.00
2023-10-14T13:43:29.925Z,11.03
2023-10-14T13:44:31.907Z,13.01
2023-10-14T13:45:33.818Z,10.77
2023-10-14T13:46:35.983Z,9.49
2023-10-14T13:47:38.571Z,10.05
2023-10-14T13:48:40.758Z,10.05
2023-10-14T13:49:42.976Z,10.69
2023-10-14T13:50:45.082Z,8.94
2023-10-14T13:51:48.283Z,10.08
2023-10-14T13:52:51.602Z,7.62
2023-10-14T13:53:53.531Z,7.66
2023-10-14T13:54:55.461Z,10.77
2023-10-14T13:55:58.042Z,13.29
2023-10-14T13:57:00.291Z,15.35
2023-10-14T13:58:02.304Z,13.21